Time;durP1;ratioP1;P1;durP2;ratioP2;P2;SDS_P1;SDS_P2;PMS_P1;PMS_P2;Temp;Humidity;BMP_temperature;BMP_pressure;BME280_temperature;BME280_humidity;BME280_pressure;Samples;Min_cycle;Max_cycle;Signal;HPM_P1;HPM_P2
2023/08/22 00:02:24;;;;;;;7.70;7.03;;;;;;;26.41;51.49;99529.75;5031644;28;20197;-65
2023/08/22 00:04:51;;;;;;;8.33;7.83;;;;;;;26.41;51.90;99534.41;5044029;28;20201;-65
2023/08/22 00:07:17;;;;;;;8.03;7.47;;;;;;;26.35;51.83;99527.41;5032675;28;20221;-67
2023/08/22 00:09:44;;;;;;;7.73;7.00;;;;;;;26.40;51.97;99532.75;5011898;28;20197;-68
2023/08/22 00:12:11;;;;;;;7.27;6.77;;;;;;;26.42;51.97;99541.47;5011570;28;20623;-67
2023/08/22 00:14:39;;;;;;;8.73;6.73;;;;;;;26.49;50.06;99541.88;5011959;28;20226;-67
2023/08/22 00:17:08;;;;;;;6.43;5.93;;;;;;;26.53;49.61;99538.25;5017474;28;20189;-67
2023/08/22 00:19:35;;;;;;;11.50;7.20;;;;;;;26.60;50.52;99544.16;5031664;28;20230;-67
2023/08/22 00:22:03;;;;;;;6.93;6.47;;;;;;;26.68;50.98;99545.41;5031606;28;20295;-67
2023/08/22 00:24:30;;;;;;;6.80;6.30;;;;;;;26.68;50.73;99542.66;5031294;28;20201;-67
2023/08/22 00:26:57;;;;;;;7.23;6.53;;;;;;;26.63;50.63;99540.03;5026975;28;20190;-67
2023/08/22 00:29:24;;;;;;;6.87;6.37;;;;;;;26.71;48.57;99544.81;5011856;28;20197;-66
2023/08/22 00:31:52;;;;;;;8.43;5.77;;;;;;;26.72;48.92;99546.41;5011554;28;20325;-67
2023/08/22 00:34:19;;;;;;;7.00;6.47;;;;;;;26.72;50.67;99547.22;5012706;28;20272;-67
2023/08/22 00:36:46;;;;;;;6.33;5.93;;;;;;;26.61;51.25;99539.50;5011372;28;20260;-67
2023/08/22 00:39:12;;;;;;;7.50;6.23;;;;;;;26.54;51.14;99544.53;5011763;28;20189;-67
2023/08/22 00:41:39;;;;;;;6.67;6.27;;;;;;;26.42;51.26;99536.00;5011661;28;20190;-67
2023/08/22 00:44:06;;;;;;;7.73;6.00;;;;;;;26.40;50.82;99540.94;5030395;28;20201;-67
2023/08/22 00:46:33;;;;;;;6.40;5.87;;;;;;;26.43;50.77;99537.63;5031063;28;20616;-66
2023/08/22 00:49:03;;;;;;;7.07;6.27;;;;;;;26.41;50.70;99539.84;5031100;28;20669;-66
2023/08/22 00:51:30;;;;;;;6.07;5.67;;;;;;;26.35;51.18;99541.84;5030287;28;20202;-66
2023/08/22 00:53:57;;;;;;;6.87;6.20;;;;;;;26.37;51.06;99544.28;5031084;28;20217;-66
2023/08/22 00:56:23;;;;;;;6.13;5.80;;;;;;;26.36;50.92;99548.09;5030937;28;20657;-67
2023/08/22 00:58:51;;;;;;;6.83;6.33;;;;;;;26.36;51.37;99548.09;5031278;28;20261;-66
2023/08/22 01:01:18;;;;;;;7.60;6.47;;;;;;;26.40;51.44;99549.94;5018177;28;20260;-67
2023/08/22 01:03:44;;;;;;;7.10;6.37;;;;;;;26.40;51.25;99549.09;5011392;28;20280;-66
2023/08/22 01:06:19;;;;;;;7.60;6.03;;;;;;;26.31;51.23;99554.44;5011426;28;20194;-67
2023/08/22 01:08:53;;;;;;;6.60;6.03;;;;;;;26.17;51.58;99556.28;5011345;28;20240;-67
2023/08/22 01:11:26;;;;;;;6.77;6.17;;;;;;;26.02;51.65;99550.28;5022643;28;20189;-67
2023/08/22 01:13:55;;;;;;;6.43;5.83;;;;;;;25.97;52.14;99555.78;5031545;28;20240;-66
2023/08/22 01:16:23;;;;;;;7.83;6.43;;;;;;;25.84;52.46;99546.41;5034780;28;20280;-66
2023/08/22 01:18:50;;;;;;;7.23;6.70;;;;;;;25.81;52.25;99551.63;5034500;28;20251;-67
2023/08/22 01:21:20;;;;;;;5.83;5.47;;;;;;;25.70;52.80;99550.16;5022926;28;20304;-67
2023/08/22 01:23:48;;;;;;;7.80;5.53;;;;;;;25.66;52.91;99549.13;5014987;28;20335;-67
2023/08/22 01:26:15;;;;;;;6.03;5.73;;;;;;;25.65;53.77;99548.31;5014540;28;20264;-67
2023/08/22 01:28:46;;;;;;;6.93;6.27;;;;;;;25.56;53.58;99544.63;5015028;28;20217;-68
2023/08/22 01:31:19;;;;;;;6.40;6.03;;;;;;;25.55;54.03;99547.66;5025015;28;20225;-67
2023/08/22 01:33:52;;;;;;;6.20;5.70;;;;;;;25.52;54.47;99556.38;5034355;28;20205;-67
2023/08/22 01:36:21;;;;;;;6.60;6.00;;;;;;;25.54;54.55;99556.88;5034142;28;20243;-67
2023/08/22 01:38:50;;;;;;;6.50;6.00;;;;;;;25.56;53.93;99550.06;5034458;28;20190;-67
2023/08/22 01:41:18;;;;;;;6.77;6.17;;;;;;;25.65;53.96;99547.50;5022737;28;20198;-67
2023/08/22 01:43:45;;;;;;;6.43;5.93;;;;;;;25.88;53.26;99562.97;5014366;28;20194;-66
2023/08/22 01:46:12;;;;;;;7.13;6.63;;;;;;;25.88;53.05;99565.69;5014538;28;20270;-66
2023/08/22 01:48:39;;;;;;;6.67;6.20;;;;;;;25.81;53.54;99562.53;5014218;28;20666;-66
2023/08/22 01:51:06;;;;;;;7.30;5.97;;;;;;;25.94;53.68;99562.63;5022647;28;20193;-66
2023/08/22 01:53:32;;;;;;;6.30;5.90;;;;;;;25.97;53.46;99561.25;5033825;28;20229;-65
2023/08/22 01:56:01;;;;;;;6.77;6.47;;;;;;;25.96;53.97;99571.31;5034148;28;20201;-66
2023/08/22 01:58:28;;;;;;;7.37;6.70;;;;;;;26.01;53.81;99567.72;5033761;28;20656;-66
2023/08/22 02:00:55;;;;;;;7.40;6.90;;;;;;;25.97;53.76;99566.69;5026219;28;20194;-65
2023/08/22 02:03:22;;;;;;;7.60;6.87;;;;;;;25.94;53.90;99559.09;5013825;28;20252;-66
2023/08/22 02:05:48;;;;;;;7.57;6.90;;;;;;;25.87;54.61;99567.59;5014156;28;20194;-66
2023/08/22 02:08:15;;;;;;;7.70;7.00;;;;;;;25.91;54.79;99565.09;5029882;28;20205;-66
2023/08/22 02:10:42;;;;;;;7.43;6.73;;;;;;;25.87;54.64;99550.44;5014490;28;20194;-66
2023/08/22 02:13:10;;;;;;;8.20;7.53;;;;;;;25.82;54.86;99553.25;5013843;28;20198;-65
2023/08/22 02:15:36;;;;;;;8.50;7.33;;;;;;;25.79;55.18;99556.56;5013476;28;20244;-65
2023/08/22 02:18:04;;;;;;;8.33;7.53;;;;;;;25.72;55.26;99550.69;5013579;28;20198;-65
2023/08/22 02:20:31;;;;;;;7.77;7.23;;;;;;;25.60;55.77;99551.09;5029794;28;20276;-65
2023/08/22 02:22:58;;;;;;;7.93;7.43;;;;;;;25.52;56.02;99554.47;5033592;28;20296;-65
2023/08/22 02:25:25;;;;;;;7.77;7.10;;;;;;;25.46;56.11;99550.19;5032840;28;20263;-66
2023/08/22 02:27:51;;;;;;;9.53;6.60;;;;;;;25.45;55.67;99547.75;5033216;28;20193;-65
2023/08/22 02:30:20;;;;;;;7.60;7.00;;;;;;;25.39;55.64;99555.16;5018737;28;20194;-66
2023/08/22 02:32:47;;;;;;;8.67;7.90;;;;;;;25.30;56.10;99553.38;5013656;28;20237;-66
2023/08/22 02:35:14;;;;;;;7.83;7.13;;;;;;;25.10;56.40;99561.75;5013319;28;20708;-66
2023/08/22 02:37:41;;;;;;;7.63;6.93;;;;;;;25.06;56.38;99553.34;5013247;28;20198;-66
2023/08/22 02:40:09;;;;;;;7.97;7.47;;;;;;;24.98;56.43;99555.91;5025845;28;20208;-65
2023/08/22 02:42:36;;;;;;;8.97;8.10;;;;;;;24.91;57.36;99548.09;5032924;28;20284;-65
2023/08/22 02:45:04;;;;;;;10.67;7.90;;;;;;;24.80;57.87;99552.00;5033256;28;20197;-65
2023/08/22 02:47:32;;;;;;;8.10;7.30;;;;;;;24.84;57.80;99542.97;5028021;28;20201;-65
2023/08/22 02:50:00;;;;;;;9.47;7.53;;;;;;;24.89;57.85;99548.38;5013001;28;20809;-66
2023/08/22 02:52:27;;;;;;;11.23;7.23;;;;;;;24.96;58.12;99556.97;5012888;28;20665;-66
2023/08/22 02:54:54;;;;;;;7.80;7.20;;;;;;;25.10;57.90;99556.31;5013216;28;20233;-66
2023/08/22 02:57:20;;;;;;;9.40;7.00;;;;;;;25.22;57.38;99562.97;5014729;28;20197;-66
2023/08/22 02:59:47;;;;;;;8.27;7.47;;;;;;;25.36;57.16;99563.94;5032922;28;20637;-66
2023/08/22 03:02:14;;;;;;;7.03;6.33;;;;;;;25.39;56.74;99563.34;5032745;28;20239;-66
2023/08/22 03:04:42;;;;;;;7.20;6.60;;;;;;;25.31;57.36;99563.19;5032613;28;20220;-65
2023/08/22 03:07:09;;;;;;;7.27;6.67;;;;;;;25.24;57.38;99568.13;5025878;28;20677;-65
2023/08/22 03:09:37;;;;;;;7.60;6.90;;;;;;;25.19;57.31;99568.19;5032780;28;20232;-66
2023/08/22 03:12:05;;;;;;;7.17;6.57;;;;;;;25.10;57.16;99564.47;5032255;28;20193;-65
2023/08/22 03:14:32;;;;;;;7.70;6.97;;;;;;;25.05;56.81;99570.78;5032525;28;20296;-66
2023/08/22 03:16:58;;;;;;;7.40;6.73;;;;;;;25.03;57.19;99579.22;5018935;28;20198;-65
2023/08/22 03:19:25;;;;;;;13.83;7.87;;;;;;;25.00;57.24;99585.22;5012487;28;20195;-65
2023/08/22 03:21:53;;;;;;;7.57;7.03;;;;;;;24.98;57.18;99577.66;5012384;28;20625;-67
2023/08/22 03:24:20;;;;;;;7.67;7.10;;;;;;;24.95;57.79;99579.84;5012790;28;20193;-66
2023/08/22 03:26:46;;;;;;;8.30;7.80;;;;;;;25.01;57.61;99580.59;5023058;28;20201;-67
2023/08/22 03:29:13;;;;;;;7.30;6.73;;;;;;;25.06;58.13;99577.03;5029983;28;20193;-66
2023/08/22 03:31:40;;;;;;;9.50;7.73;;;;;;;25.14;57.73;99587.28;5031651;28;20379;-66
2023/08/22 03:34:06;;;;;;;8.83;7.50;;;;;;;25.21;57.45;99591.25;5031831;28;20229;-67
2023/08/22 03:36:33;;;;;;;12.20;7.43;;;;;;;25.20;57.18;99576.06;5030441;28;20189;-66
2023/08/22 03:39:01;;;;;;;11.33;8.60;;;;;;;25.21;57.20;99585.81;5031371;28;20193;-66
2023/08/22 03:41:28;;;;;;;8.70;7.90;;;;;;;25.18;57.32;99586.41;5031658;28;20246;-67
2023/08/22 03:43:54;;;;;;;14.30;8.10;;;;;;;25.06;57.71;99587.91;5030005;28;20254;-66
2023/08/22 03:46:21;;;;;;;10.17;7.57;;;;;;;24.99;58.38;99599.91;5032190;28;20265;-66
2023/08/22 03:48:48;;;;;;;8.03;7.47;;;;;;;24.95;58.33;99589.91;5031657;28;20193;-66
2023/08/22 03:51:14;;;;;;;38.90;13.93;;;;;;;24.93;58.26;99592.91;5031634;28;20198;-66
2023/08/22 03:53:41;;;;;;;9.77;8.10;;;;;;;25.01;58.08;99591.47;5015719;28;20678;-67
2023/08/22 03:56:09;;;;;;;10.40;8.00;;;;;;;25.11;57.86;99585.13;5011965;28;20615;-66
2023/08/22 03:58:36;;;;;;;8.30;7.53;;;;;;;25.17;57.33;99583.97;5011854;28;20618;-66
2023/08/22 04:01:03;;;;;;;9.93;7.33;;;;;;;25.18;57.88;99593.75;5011829;28;20654;-67
2023/08/22 04:03:31;;;;;;;18.27;7.77;;;;;;;25.19;57.82;99595.38;5024212;28;20193;-66
2023/08/22 04:05:59;;;;;;;8.20;7.43;;;;;;;25.27;58.33;99600.19;5031991;28;20579;-65
2023/08/22 04:08:26;;;;;;;7.53;7.07;;;;;;;25.47;57.50;99597.25;5013816;28;20193;-65
2023/08/22 04:10:53;;;;;;;14.70;8.10;;;;;;;25.73;56.16;99604.81;5016848;28;20186;-66
2023/08/22 04:13:21;;;;;;;9.50;7.23;;;;;;;26.14;55.11;99605.09;5031704;28;20212;-66
2023/08/22 04:15:48;;;;;;;15.37;7.73;;;;;;;26.56;54.13;99596.81;5031277;28;20720;-66
2023/08/22 04:18:14;;;;;;;16.43;7.80;;;;;;;26.96;52.92;99598.88;5045474;28;20266;-67
2023/08/22 04:20:42;;;;;;;10.80;7.53;;;;;;;27.39;51.62;99601.06;5032463;28;20254;-67
2023/08/22 04:23:09;;;;;;;9.77;7.17;;;;;;;27.86;50.36;99610.78;5031234;28;20189;-68
2023/08/22 04:25:36;;;;;;;14.60;7.90;;;;;;;28.28;49.63;99607.63;5031558;28;20261;-67
2023/08/22 04:28:03;;;;;;;9.93;7.03;;;;;;;28.76;47.04;99625.09;5031492;28;20197;-67
2023/08/22 04:30:31;;;;;;;16.53;7.70;;;;;;;29.19;46.00;99624.25;5015416;28;20194;-66
2023/08/22 04:32:58;;;;;;;14.63;7.27;;;;;;;29.49;44.55;99621.78;5011774;28;20697;-67
2023/08/22 04:35:25;;;;;;;9.00;7.30;;;;;;;29.68;43.78;99625.91;5011733;28;20225;-67
2023/08/22 04:37:52;;;;;;;16.87;7.03;;;;;;;29.86;43.53;99632.25;5011748;28;20229;-67
2023/08/22 04:40:18;;;;;;;7.97;6.20;;;;;;;29.98;43.52;99636.00;5024714;28;20252;-67
2023/08/22 04:42:45;;;;;;;7.67;6.33;;;;;;;30.13;42.22;99624.53;5031199;28;20263;-67
2023/08/22 04:45:12;;;;;;;9.53;7.23;;;;;;;30.36;41.94;99642.50;5031394;28;20522;-66
2023/08/22 04:47:40;;;;;;;7.33;6.50;;;;;;;30.46;41.43;99639.44;5025894;28;20252;-66
2023/08/22 04:50:08;;;;;;;6.90;6.30;;;;;;;30.80;40.61;99642.22;5013724;28;20201;-65
2023/08/22 04:52:34;;;;;;;11.57;7.30;;;;;;;31.05;40.28;99649.56;5015646;28;20201;-67
2023/08/22 04:55:01;;;;;;;19.40;8.10;;;;;;;31.15;40.39;99649.22;5030076;28;20224;-67
2023/08/22 04:57:28;;;;;;;23.47;8.03;;;;;;;31.41;39.13;99643.69;5049812;28;20248;-66
2023/08/22 04:59:55;;;;;;;8.83;6.70;;;;;;;31.75;38.74;99649.00;5034387;28;20197;-66
2023/08/22 05:02:21;;;;;;;43.93;8.63;;;;;;;31.85;38.08;99640.44;5046631;28;20201;-67
2023/08/22 05:04:50;;;;;;;32.80;8.87;;;;;;;31.92;38.14;99646.19;5054655;28;20201;-67
2023/08/22 05:07:16;;;;;;;15.53;7.87;;;;;;;31.98;37.81;99645.69;5046767;28;20281;-67
2023/08/22 05:09:43;;;;;;;14.87;7.83;;;;;;;32.15;38.00;99655.75;5030887;28;20264;-67
2023/08/22 05:12:10;;;;;;;22.83;8.17;;;;;;;32.34;37.50;99643.19;5015910;28;20228;-66
2023/08/22 05:14:36;;;;;;;20.63;7.37;;;;;;;32.74;36.42;99652.56;5014993;28;20265;-67
2023/08/22 05:17:03;;;;;;;17.37;7.37;;;;;;;33.10;35.69;99655.47;5014779;28;20198;-72
2023/08/22 05:19:30;;;;;;;8.40;7.03;;;;;;;33.67;34.86;99652.72;5020167;28;20277;-69
2023/08/22 05:21:58;;;;;;;14.07;7.38;;;;;;;34.21;33.35;99658.81;5034465;28;20271;-69
2023/08/22 05:24:24;;;;;;;12.07;7.20;;;;;;;34.33;33.40;99658.81;5034199;28;20193;-70
2023/08/22 05:26:50;;;;;;;20.98;7.32;;;;;;;34.65;32.75;99655.00;5034216;28;20215;-71
2023/08/22 05:29:19;;;;;;;20.38;7.60;;;;;;;34.70;32.56;99663.06;5026739;28;20746;-73
2023/08/22 05:31:45;;;;;;;16.92;7.38;;;;;;;34.79;32.27;99656.25;5024061;28;20256;-73
2023/08/22 05:34:12;;;;;;;21.17;7.75;;;;;;;34.54;32.79;99651.94;5014180;28;20206;-72
2023/08/22 05:36:39;;;;;;;9.70;6.32;;;;;;;34.45;32.95;99658.78;5029129;28;20247;-73
2023/08/22 05:39:07;;;;;;;12.20;7.25;;;;;;;34.71;32.78;99659.13;5034021;28;20688;-73
2023/08/22 05:41:34;;;;;;;16.45;7.43;;;;;;;35.12;31.94;99659.56;5030453;28;20221;-72
2023/08/22 05:44:01;;;;;;;8.20;6.53;;;;;;;35.49;30.85;99651.84;5028683;28;20614;-72
2023/08/22 05:46:27;;;;;;;10.40;7.47;;;;;;;35.69;31.17;99651.56;5014121;28;20197;-68
2023/08/22 05:48:54;;;;;;;11.90;7.32;;;;;;;36.08;30.22;99664.41;5014002;28;20202;-72
2023/08/22 05:51:21;;;;;;;11.77;6.97;;;;;;;36.07;30.38;99660.03;5033769;28;20201;-71
2023/08/22 05:53:47;;;;;;;10.48;7.43;;;;;;;35.99;30.32;99652.72;5029856;28;20198;-73
2023/08/22 05:56:15;;;;;;;11.15;6.38;;;;;;;36.28;30.15;99663.31;5021459;28;20217;-72
2023/08/22 05:58:42;;;;;;;7.22;6.65;;;;;;;36.48;29.86;99655.81;5027156;28;20193;-70
2023/08/22 06:01:09;;;;;;;9.20;6.20;;;;;;;36.67;29.34;99659.38;5017549;28;20219;-74
2023/08/22 06:03:36;;;;;;;7.20;6.10;;;;;;;36.21;29.50;99656.78;5028919;28;20247;-73
2023/08/22 06:06:04;;;;;;;6.50;5.82;;;;;;;36.31;29.89;99657.06;5024535;28;20665;-71
2023/08/22 06:08:30;;;;;;;11.15;6.53;;;;;;;36.26;29.17;99653.75;5020870;28;20638;-71
2023/08/22 06:10:57;;;;;;;8.63;6.30;;;;;;;36.31;29.78;99651.53;5020671;28;20190;-70
2023/08/22 06:13:25;;;;;;;11.38;5.93;;;;;;;36.39;29.46;99655.22;5022664;28;20193;-69
2023/08/22 06:15:52;;;;;;;14.75;6.20;;;;;;;36.39;29.08;99649.69;5022141;28;20218;-71
2023/08/22 06:18:18;;;;;;;8.32;5.95;;;;;;;36.57;29.39;99650.84;5019265;28;20356;-70
2023/08/22 06:20:46;;;;;;;6.60;6.20;;;;;;;36.74;28.92;99653.22;5032815;28;20714;-71
2023/08/22 06:23:12;;;;;;;8.05;6.63;;;;;;;36.89;29.08;99649.56;5033072;28;20189;-73
2023/08/22 06:25:39;;;;;;;32.38;7.28;;;;;;;37.04;28.39;99649.47;5029242;28;20262;-72
2023/08/22 06:28:06;;;;;;;8.98;6.18;;;;;;;36.78;28.64;99651.31;5020324;28;20198;-71
2023/08/22 06:30:34;;;;;;;16.52;6.32;;;;;;;36.86;28.93;99650.28;5022224;28;20277;-69
2023/08/22 06:33:02;;;;;;;19.40;7.25;;;;;;;36.94;29.03;99652.03;5022632;28;20247;-73
2023/08/22 06:35:28;;;;;;;9.18;6.45;;;;;;;36.70;28.34;99652.38;5026529;28;20213;-71
2023/08/22 06:37:55;;;;;;;9.48;6.30;;;;;;;36.06;29.45;99649.31;5023473;28;20292;-68
2023/08/22 06:40:23;;;;;;;9.18;6.20;;;;;;;36.09;29.28;99651.38;5023256;28;20189;-71
2023/08/22 06:42:50;;;;;;;9.85;5.82;;;;;;;36.04;29.59;99646.09;5016634;28;20201;-69
2023/08/22 06:45:17;;;;;;;8.45;6.00;;;;;;;36.26;30.07;99648.22;5015001;28;20193;-70
2023/08/22 06:47:45;;;;;;;9.25;5.50;;;;;;;35.98;29.33;99647.56;5022534;28;20190;-72
2023/08/22 06:50:12;;;;;;;20.00;6.28;;;;;;;36.31;29.34;99650.69;5026394;28;20198;-68
2023/08/22 06:52:39;;;;;;;9.70;6.13;;;;;;;36.57;28.66;99642.56;5031526;28;20220;-71
2023/08/22 06:55:06;;;;;;;7.35;5.65;;;;;;;36.43;28.48;99651.38;5031295;28;20647;-72
2023/08/22 06:57:33;;;;;;;11.68;6.30;;;;;;;36.69;29.09;99645.22;5031216;28;20196;-64
2023/08/22 07:00:03;;;;;;;9.32;6.00;;;;;;;36.54;28.75;99648.84;5032010;28;20197;-67
2023/08/22 07:02:30;;;;;;;7.65;5.60;;;;;;;36.66;29.16;99643.94;5021055;28;20281;-66
2023/08/22 07:04:58;;;;;;;7.50;5.80;;;;;;;36.86;28.25;99647.53;5032227;28;20263;-64
2023/08/22 07:07:24;;;;;;;11.95;6.45;;;;;;;36.49;29.08;99649.09;5021534;28;20194;-64
2023/08/22 07:09:51;;;;;;;7.15;6.07;;;;;;;36.61;28.37;99637.88;5015598;28;20620;-64
2023/08/22 07:12:18;;;;;;;13.20;6.30;;;;;;;36.79;28.38;99634.34;5031347;28;20197;-64
2023/08/22 07:14:44;;;;;;;11.85;6.07;;;;;;;36.80;28.18;99635.97;5032042;28;20194;-63
2023/08/22 07:17:11;;;;;;;6.50;5.90;;;;;;;37.23;27.96;99632.03;5013880;28;20194;-64
2023/08/22 07:19:38;;;;;;;8.07;5.90;;;;;;;37.67;27.75;99644.31;5013576;28;20279;-63
2023/08/22 07:22:06;;;;;;;9.60;5.85;;;;;;;37.98;26.79;99635.69;5016242;28;20669;-62
2023/08/22 07:24:32;;;;;;;6.50;5.90;;;;;;;37.76;27.53;99644.06;5025121;28;20189;-62
2023/08/22 07:26:59;;;;;;;6.13;5.68;;;;;;;37.90;27.05;99638.72;5031454;28;20202;-62
2023/08/22 07:29:26;;;;;;;7.65;5.20;;;;;;;37.80;26.95;99634.59;5029551;28;20251;-62
2023/08/22 07:31:57;;;;;;;5.50;5.10;;;;;;;38.16;26.76;99645.09;5013839;28;20650;-62
2023/08/22 07:34:24;;;;;;;12.32;5.60;;;;;;;38.57;26.22;99638.53;5012063;28;20272;-63
2023/08/22 07:36:51;;;;;;;10.45;6.38;;;;;;;38.85;25.96;99641.63;5014395;28;20213;-63
2023/08/22 07:39:19;;;;;;;9.60;5.75;;;;;;;38.84;25.63;99631.72;5031229;28;20201;-63
2023/08/22 07:41:46;;;;;;;16.98;6.28;;;;;;;38.95;25.66;99635.41;5029726;28;20189;-63
2023/08/22 07:44:13;;;;;;;12.02;5.78;;;;;;;38.87;25.39;99638.47;5030275;28;20201;-65
2023/08/22 07:46:40;;;;;;;31.35;7.20;;;;;;;38.44;25.25;99628.00;5030970;28;20263;-65
2023/08/22 07:49:08;;;;;;;29.33;7.18;;;;;;;38.35;25.52;99633.03;5026073;28;20201;-65
2023/08/22 07:51:36;;;;;;;10.70;5.72;;;;;;;38.23;26.01;99628.53;5016039;28;20190;-64
2023/08/22 07:54:03;;;;;;;13.95;5.75;;;;;;;38.33;25.14;99644.53;5011738;28;20225;-65
2023/08/22 07:56:33;;;;;;;6.35;5.07;;;;;;;38.11;24.91;99634.31;5011650;28;20233;-66
2023/08/22 07:59:00;;;;;;;6.10;5.30;;;;;;;38.33;25.47;99636.19;5011198;28;20248;-67
2023/08/22 08:01:27;;;;;;;6.10;5.45;;;;;;;38.53;24.64;99640.44;5015464;28;20193;-64
2023/08/22 08:03:55;;;;;;;9.98;7.95;;;;;;;38.71;23.88;99629.56;5045994;28;20205;-66
2023/08/22 08:06:21;;;;;;;15.77;5.63;;;;;;;39.02;23.94;99635.50;5030413;28;20558;-64
2023/08/22 08:08:48;;;;;;;14.23;9.25;;;;;;;39.33;23.62;99632.28;5029163;28;20584;-62
2023/08/22 08:11:15;;;;;;;7.10;5.50;;;;;;;39.46;23.35;99627.19;5029154;28;20203;-63
2023/08/22 08:13:43;;;;;;;6.43;5.15;;;;;;;39.55;23.34;99631.25;5030823;28;20734;-64
2023/08/22 08:16:10;;;;;;;5.55;5.07;;;;;;;39.90;22.97;99619.63;5019400;28;20288;-63
2023/08/22 08:18:36;;;;;;;5.40;4.53;;;;;;;40.06;22.26;99632.06;5011658;28;20288;-65
2023/08/22 08:21:03;;;;;;;6.38;5.32;;;;;;;40.23;22.18;99625.81;5022321;28;20750;-65
2023/08/22 08:23:30;;;;;;;6.30;4.75;;;;;;;40.48;22.51;99628.72;5028119;28;20673;-65
2023/08/22 08:25:57;;;;;;;6.80;4.97;;;;;;;40.66;21.84;99616.47;5018933;28;20229;-65
2023/08/22 08:28:25;;;;;;;11.52;4.70;;;;;;;40.80;21.67;99624.09;5031210;28;20677;-65
2023/08/22 08:30:53;;;;;;;4.93;4.53;;;;;;;40.82;21.16;99616.94;5029472;28;20640;-64
2023/08/22 08:33:19;;;;;;;4.65;4.25;;;;;;;40.85;22.21;99610.56;5030549;28;20188;-65
2023/08/22 08:35:46;;;;;;;5.25;4.75;;;;;;;40.98;21.21;99613.75;5029637;28;20275;-67
2023/08/22 08:38:13;;;;;;;4.55;4.10;;;;;;;40.82;21.37;99622.50;5030975;28;20197;-65
2023/08/22 08:40:44;;;;;;;5.95;4.18;;;;;;;41.01;21.58;99623.38;5030294;28;20273;-66
2023/08/22 08:43:11;;;;;;;5.60;4.82;;;;;;;41.09;21.45;99620.19;5030877;28;20196;-66
2023/08/22 08:45:39;;;;;;;7.82;5.07;;;;;;;40.98;21.46;99620.16;5030240;28;20247;-65
2023/08/22 08:48:08;;;;;;;5.32;4.70;;;;;;;40.87;21.73;99624.88;5018822;28;20189;-65
2023/08/22 08:50:38;;;;;;;5.38;4.70;;;;;;;40.76;21.70;99624.09;5031001;28;20193;-65
2023/08/22 08:53:05;;;;;;;6.63;4.72;;;;;;;40.92;21.83;99616.16;5030609;28;20599;-64
2023/08/22 08:55:33;;;;;;;9.38;5.20;;;;;;;41.03;21.50;99611.41;5030820;28;20287;-64
2023/08/22 08:58:00;;;;;;;7.13;4.60;;;;;;;40.84;21.48;99619.31;5029426;28;20197;-64
2023/08/22 09:00:26;;;;;;;7.15;4.65;;;;;;;40.60;21.45;99618.06;5021228;28;20202;-63
2023/08/22 09:02:53;;;;;;;8.98;4.88;;;;;;;40.69;22.25;99612.91;5032510;28;20199;-65
2023/08/22 09:05:23;;;;;;;6.57;4.80;;;;;;;40.18;22.76;99615.03;5023869;28;20622;-65
2023/08/22 09:07:49;;;;;;;4.40;4.00;;;;;;;40.37;21.91;99609.16;5014309;28;20277;-64
2023/08/22 09:10:32;;;;;;;5.28;4.55;;;;;;;40.21;22.49;99605.91;5020338;28;20201;-63
2023/08/22 09:13:02;;;;;;;6.18;4.50;;;;;;;40.48;22.37;99593.31;5023699;28;20216;-64
2023/08/22 09:15:29;;;;;;;9.32;4.95;;;;;;;40.16;22.41;99606.25;5026166;28;20225;-64
2023/08/22 09:17:56;;;;;;;5.90;4.53;;;;;;;40.16;22.42;99605.44;5026064;28;20205;-65
2023/08/22 09:20:24;;;;;;;5.20;4.55;;;;;;;40.24;22.49;99591.22;5025946;28;20204;-65
2023/08/22 09:22:51;;;;;;;5.80;4.15;;;;;;;40.41;22.03;99593.28;5027476;28;20193;-65
2023/08/22 09:25:18;;;;;;;4.85;4.32;;;;;;;40.53;21.97;99592.09;5026352;28;20626;-66
2023/08/22 09:27:50;;;;;;;4.85;4.45;;;;;;;40.65;21.96;99584.25;5027010;28;20206;-64
2023/08/22 09:30:20;;;;;;;9.05;4.35;;;;;;;40.61;21.97;99583.44;5027034;28;20259;-66
2023/08/22 09:32:58;;;;;;;4.78;4.40;;;;;;;40.49;22.19;99585.72;5019589;28;20240;-64
2023/08/22 09:35:30;;;;;;;4.60;4.20;;;;;;;40.64;22.13;99582.66;5028766;28;20224;-64
2023/08/22 09:38:10;;;;;;;6.07;4.75;;;;;;;40.62;21.77;99578.66;5031009;28;20292;-70
2023/08/22 09:41:02;;;;;;;10.80;4.75;;;;;;;40.57;21.59;99570.63;5029980;28;20657;-70
2023/08/22 09:43:42;;;;;;;5.43;4.63;;;;;;;40.49;22.25;99574.59;5025774;28;20208;-66
2023/08/22 09:46:13;;;;;;;5.10;4.70;;;;;;;40.67;22.32;99570.69;5031324;28;20197;-65
2023/08/22 09:48:44;;;;;;;5.05;4.45;;;;;;;40.45;22.15;99562.63;5029976;28;20711;-66
2023/08/22 09:51:14;;;;;;;6.05;4.45;;;;;;;40.51;22.62;99561.88;5030484;28;20221;-66
2023/08/22 09:53:43;;;;;;;5.15;4.65;;;;;;;40.50;22.51;99554.69;5023351;28;20197;-65
2023/08/22 09:56:18;;;;;;;6.18;4.60;;;;;;;40.33;22.68;99549.09;5030622;28;20221;-66
2023/08/22 09:59:13;;;;;;;7.38;4.18;;;;;;;40.51;22.24;99558.28;5030688;28;20200;-66
2023/08/22 10:02:00;;;;;;;6.93;4.47;;;;;;;40.28;22.56;99524.38;5030392;28;20196;-68
2023/08/22 10:04:28;;;;;;;6.07;4.95;;;;;;;40.42;22.48;99552.31;5033580;28;20190;-67
2023/08/22 10:07:08;;;;;;;7.70;4.72;;;;;;;40.49;22.61;99547.53;5030547;28;20205;-66
2023/08/22 10:09:38;;;;;;;5.55;5.10;;;;;;;40.26;22.57;99549.06;5029514;28;20199;-67
2023/08/22 10:12:19;;;;;;;5.13;4.72;;;;;;;40.12;22.68;99555.31;5030035;28;20283;-67
2023/08/22 10:14:56;;;;;;;5.20;4.70;;;;;;;40.29;22.36;99551.84;5030635;28;20193;-68
2023/08/22 10:17:33;;;;;;;6.15;4.88;;;;;;;40.26;22.39;99538.69;5030022;28;20201;-67
2023/08/22 10:20:04;;;;;;;8.40;5.38;;;;;;;40.07;22.99;99552.94;5025243;28;20631;-66
2023/08/22 10:22:33;;;;;;;4.78;4.57;;;;;;;40.16;22.85;99549.75;5022927;28;20231;-66
2023/08/22 10:25:04;;;;;;;9.10;5.10;;;;;;;40.01;23.11;99537.75;5024979;28;20294;-66
2023/08/22 10:27:32;;;;;;;9.88;5.00;;;;;;;40.19;22.58;99533.13;5025053;28;20233;-65
2023/08/22 10:30:20;;;;;;;6.75;4.88;;;;;;;40.11;23.06;99531.47;5020220;28;20202;-66
2023/08/22 10:33:04;;;;;;;5.28;4.82;;;;;;;40.10;23.62;99524.31;5027188;28;20248;-66
2023/08/22 10:35:31;;;;;;;6.97;4.88;;;;;;;40.04;22.96;99528.66;5019055;28;20288;-66
2023/08/22 10:38:04;;;;;;;6.57;4.75;;;;;;;40.07;22.29;99530.66;5029561;28;20299;-67
2023/08/22 10:40:35;;;;;;;6.40;4.97;;;;;;;40.08;22.92;99526.66;5028743;28;20248;-65
2023/08/22 10:43:12;;;;;;;7.80;4.90;;;;;;;40.05;23.13;99533.00;5029556;28;20193;-66
2023/08/22 10:45:48;;;;;;;5.07;4.78;;;;;;;40.16;22.48;99522.72;5029061;28;20297;-66
2023/08/22 10:48:24;;;;;;;6.55;4.95;;;;;;;40.22;22.47;99514.84;5026795;28;20987;-72
2023/08/22 10:50:52;;;;;;;5.07;4.68;;;;;;;39.86;23.04;99524.19;5021954;28;20197;-66
2023/08/22 10:53:35;;;;;;;5.72;5.18;;;;;;;39.78;22.95;99489.97;5028772;28;20292;-67
2023/08/22 10:56:18;;;;;;;6.03;5.45;;;;;;;39.86;22.82;99521.41;5029175;28;20197;-66
2023/08/22 10:58:46;;;;;;;8.00;4.68;;;;;;;39.95;23.20;99511.50;5023508;28;20248;-65
2023/08/22 11:01:23;;;;;;;6.63;5.05;;;;;;;39.51;23.65;99516.38;5028421;28;20251;-66
2023/08/22 11:03:51;;;;;;;8.23;5.38;;;;;;;39.51;23.16;99508.03;5027140;28;20221;-66
2023/08/22 11:06:22;;;;;;;10.68;4.80;;;;;;;39.66;23.50;99509.75;5026820;28;20576;-66
2023/08/22 11:08:50;;;;;;;5.50;5.07;;;;;;;39.59;23.77;99493.00;5028341;28;20194;-67
2023/08/22 11:11:19;;;;;;;5.80;5.00;;;;;;;39.79;23.13;99505.47;5019928;28;20231;-66
2023/08/22 11:13:46;;;;;;;7.20;4.72;;;;;;;39.44;24.00;99494.09;5020924;28;20200;-64
2023/08/22 11:16:20;;;;;;;7.93;4.97;;;;;;;39.50;23.83;99509.25;5025971;28;20351;-66
2023/08/22 11:18:48;;;;;;;4.93;4.68;;;;;;;39.56;23.00;99492.97;5028784;28;20665;-66
2023/08/22 11:21:17;;;;;;;4.70;4.30;;;;;;;39.82;22.93;99507.47;5029612;28;20731;-64
2023/08/22 11:23:44;;;;;;;11.68;4.93;;;;;;;39.46;23.46;99497.28;5028126;28;20276;-67
2023/08/22 11:26:12;;;;;;;5.43;4.95;;;;;;;39.23;23.29;99502.25;5028284;28;20668;-67
2023/08/22 11:28:41;;;;;;;5.00;4.60;;;;;;;39.27;23.34;99497.50;5022409;28;20198;-66
2023/08/22 11:31:18;;;;;;;5.72;5.22;;;;;;;39.15;23.23;99456.13;5029482;28;20283;-67
2023/08/22 11:33:47;;;;;;;7.18;5.25;;;;;;;39.50;23.32;99488.97;5026733;28;20193;-66
2023/08/22 11:36:15;;;;;;;5.60;5.15;;;;;;;39.51;23.33;99496.91;5028070;28;20764;-66
2023/08/22 11:38:43;;;;;;;6.95;5.55;;;;;;;39.59;23.06;99497.75;5028978;28;20279;-66